CheckWX is a tool to help pilots better visualize weather data.  It is not intended as a substitute for an official pre-flight weather briefing.

20:38:23 UTC

KNRB METAR
Mayport NS (Adm David L McDonald Field) Airport
Mayport, Florida, USA
Current

46 mins ago

KNRB 231952Z 12008KT 10SM SCT250 26/14 A3009 RMK AO2 SLP187 T02560144
Observed
Apr-23 @ 19:52 UTC
Wind
  • 120° at 8 KTS
Visibility
10 SM
Flight Rules
VFR
Cloud Levels
  • Scattered at 25,000' AGL
Temperature
26°C / 79°F
Dewpoint
14°C / 57°F
Humidity
48%
Altimeter
30.09" Hg
Pressure
1018.92 hPa
Previous

2 hours ago

KNRB 231852Z 13009KT 10SM FEW040 FEW250 26/15 A3011 RMK AO2 SLP194 T02560150
Observed
Apr-23 @ 18:52 UTC
Wind
  • 130° at 9 KTS
Visibility
10 SM
Flight Rules
VFR
Cloud Levels
  • Few at 4,000' AGL
  • Few at 25,000' AGL
Temperature
26°C / 79°F
Dewpoint
15°C / 59°F
Humidity
51%
Altimeter
30.11" Hg
Pressure
1019.62 hPa
Previous

3 hours ago

KNRB 231752Z 11008KT 10SM FEW250 26/13 A3013 RMK AO2 SLP202 T02560133 10261 20161 58010
Observed
Apr-23 @ 17:52 UTC
Wind
  • 110° at 8 KTS
Visibility
10 SM
Flight Rules
VFR
Cloud Levels
  • Few at 25,000' AGL
Temperature
26°C / 79°F
Dewpoint
13°C / 55°F
Humidity
45%
Altimeter
30.13" Hg
Pressure
1020.32 hPa